Time;durP1;ratioP1;P1;durP2;ratioP2;P2;SDS_P1;SDS_P2;PMS_P1;PMS_P2;Temp;Humidity;BMP_temperature;BMP_pressure;BME280_temperature;BME280_humidity;BME280_pressure;Samples;Min_cycle;Max_cycle;Signal;HPM_P1;HPM_P2
2022/05/08 00:02:23;;;;;;;;;;;9.80;98.40;;;;;;5081586;27;38723;-58
2022/05/08 00:04:51;;;;;;;;;;;9.60;98.60;;;;;;5082841;27;36273;-58
2022/05/08 00:07:18;;;;;;;;;;;9.50;98.60;;;;;;5085178;27;38447;-57
2022/05/08 00:09:45;;;;;;;;;;;9.40;98.80;;;;;;5084807;27;36740;-58
2022/05/08 00:12:13;;;;;;;;;;;9.30;99.00;;;;;;5086479;27;37089;-58
2022/05/08 00:14:40;;;;;;;;;;;9.20;99.30;;;;;;5084639;28;37508;-58
2022/05/08 00:17:11;;;;;;;;;;;9.20;99.40;;;;;;5084742;27;37031;-58
2022/05/08 00:19:40;;;;;;;;;;;9.20;99.60;;;;;;5085291;27;38969;-58
2022/05/08 00:22:07;;;;;;;;;;;9.10;99.70;;;;;;5083832;27;37770;-58
2022/05/08 00:24:34;;;;;;;;;;;9.10;99.80;;;;;;5084367;27;36402;-58
2022/05/08 00:27:01;;;;;;;;;;;9.20;99.80;;;;;;5084611;27;37588;-57
2022/05/08 00:29:29;;;;;;;;;;;9.30;99.60;;;;;;5085139;27;38745;-58
2022/05/08 00:31:56;;;;;;;;;;;9.30;99.40;;;;;;5086591;27;36091;-58
2022/05/08 00:34:23;;;;;;;;;;;9.30;99.40;;;;;;5087421;27;37829;-58
2022/05/08 00:36:51;;;;;;;;;;;9.20;99.40;;;;;;5086170;28;37956;-58
2022/05/08 00:39:20;;;;;;;;;;;9.20;99.40;;;;;;5085389;28;36789;-58
2022/05/08 00:41:47;;;;;;;;;;;9.10;99.30;;;;;;5086772;27;37150;-58
2022/05/08 00:44:14;;;;;;;;;;;9.00;99.30;;;;;;5085391;27;36465;-58
2022/05/08 00:46:41;;;;;;;;;;;9.00;99.40;;;;;;5086085;28;36465;-58
2022/05/08 00:49:08;;;;;;;;;;;8.90;99.70;;;;;;5084100;28;38887;-58
2022/05/08 00:51:36;;;;;;;;;;;8.80;99.80;;;;;;5084524;28;37977;-58
2022/05/08 00:54:04;;;;;;;;;;;8.80;99.90;;;;;;5084711;27;36932;-58
2022/05/08 00:56:31;;;;;;;;;;;8.80;99.90;;;;;;5083619;28;38680;-58
2022/05/08 00:58:58;;;;;;;;;;;8.90;99.90;;;;;;5084923;27;39687;-57
2022/05/08 01:01:25;;;;;;;;;;;8.90;99.90;;;;;;5084632;27;36052;-58
2022/05/08 01:03:53;;;;;;;;;;;8.90;99.80;;;;;;5085678;28;37380;-57
2022/05/08 01:06:20;;;;;;;;;;;8.90;99.90;;;;;;5085443;27;39516;-58
2022/05/08 01:08:48;;;;;;;;;;;8.80;99.70;;;;;;5084742;27;39423;-58
2022/05/08 01:11:17;;;;;;;;;;;8.80;99.70;;;;;;5086187;27;37090;-57
2022/05/08 01:13:45;;;;;;;;;;;8.90;99.70;;;;;;5084027;27;35648;-57
2022/05/08 01:16:13;;;;;;;;;;;8.90;99.60;;;;;;5084038;27;37983;-58
2022/05/08 01:18:40;;;;;;;;;;;9.00;99.50;;;;;;5084616;28;38093;-57
2022/05/08 01:21:08;;;;;;;;;;;9.00;99.20;;;;;;5085349;27;36097;-57
2022/05/08 01:23:37;;;;;;;;;;;9.10;99.40;;;;;;5087338;28;35783;-58
2022/05/08 01:26:04;;;;;;;;;;;9.10;99.00;;;;;;5087474;27;38843;-57
2022/05/08 01:28:31;;;;;;;;;;;9.00;98.90;;;;;;5085592;27;38085;-57
2022/05/08 01:30:58;;;;;;;;;;;8.90;98.90;;;;;;5085291;27;38863;-57
2022/05/08 01:33:26;;;;;;;;;;;8.80;99.00;;;;;;5083927;27;37004;-57
2022/05/08 01:35:53;;;;;;;;;;;8.60;99.00;;;;;;5083524;28;37772;-57
2022/05/08 01:38:21;;;;;;;;;;;8.60;99.30;;;;;;5084672;28;39170;-57
2022/05/08 01:40:50;;;;;;;;;;;8.50;99.50;;;;;;5084126;27;36410;-58
2022/05/08 01:43:17;;;;;;;;;;;8.50;99.60;;;;;;5086585;28;35617;-58
2022/05/08 01:45:44;;;;;;;;;;;8.40;99.60;;;;;;5085046;27;38314;-58
2022/05/08 01:48:22;;;;;;;;;;;8.30;99.80;;;;;;5086116;27;38970;-58
2022/05/08 01:50:51;;;;;;;;;;;8.30;99.90;;;;;;5085541;27;38424;-57
2022/05/08 01:53:19;;;;;;;;;;;8.30;99.90;;;;;;5084419;28;36603;-57
2022/05/08 01:55:47;;;;;;;;;;;8.30;99.90;;;;;;5085625;27;37956;-57
2022/05/08 01:58:15;;;;;;;;;;;8.40;99.90;;;;;;5085501;27;38730;-58
2022/05/08 02:00:42;;;;;;;;;;;8.30;99.80;;;;;;5083259;27;39316;-57
2022/05/08 02:03:09;;;;;;;;;;;8.30;99.50;;;;;;5084688;27;36886;-57
2022/05/08 02:05:39;;;;;;;;;;;8.20;99.50;;;;;;5083434;27;38118;-57
2022/05/08 02:08:07;;;;;;;;;;;8.20;99.60;;;;;;5082913;28;37930;-58
2022/05/08 02:10:34;;;;;;;;;;;8.10;99.70;;;;;;5083408;27;37300;-58
2022/05/08 02:13:01;;;;;;;;;;;8.00;99.80;;;;;;5084230;27;36480;-58
2022/05/08 02:15:31;;;;;;;;;;;8.00;99.90;;;;;;5083232;28;33187;-57
2022/05/08 02:17:59;;;;;;;;;;;8.00;99.90;;;;;;5084219;27;38621;-57
2022/05/08 02:20:27;;;;;;;;;;;8.00;99.90;;;;;;5083064;27;38115;-57
2022/05/08 02:22:54;;;;;;;;;;;8.00;99.90;;;;;;5083315;27;36533;-58
2022/05/08 02:25:21;;;;;;;;;;;7.90;99.90;;;;;;5083908;28;37736;-57
2022/05/08 02:27:51;;;;;;;;;;;7.80;99.90;;;;;;5084733;28;39094;-57
2022/05/08 02:30:19;;;;;;;;;;;7.80;99.90;;;;;;5084026;27;37574;-57
2022/05/08 02:32:48;;;;;;;;;;;7.80;99.90;;;;;;5084182;27;36811;-57
2022/05/08 02:35:17;;;;;;;;;;;7.70;99.90;;;;;;5083822;27;38216;-57
2022/05/08 02:37:45;;;;;;;;;;;7.70;99.90;;;;;;5085865;28;38056;-57
2022/05/08 02:40:12;;;;;;;;;;;7.80;99.90;;;;;;5084089;27;37407;-57
2022/05/08 02:42:40;;;;;;;;;;;7.80;99.90;;;;;;5083981;27;37383;-57
2022/05/08 02:45:08;;;;;;;;;;;7.80;99.90;;;;;;5084970;28;39564;-57
2022/05/08 02:47:36;;;;;;;;;;;7.90;99.90;;;;;;5084764;27;36676;-58
2022/05/08 02:50:05;;;;;;;;;;;7.90;99.90;;;;;;5081822;27;37078;-57
2022/05/08 02:52:32;;;;;;;;;;;7.90;99.90;;;;;;5084579;28;36010;-57
2022/05/08 02:58:32;;;;;;;;;;;7.90;99.90;;;;;;5084881;27;39693;-57
2022/05/08 03:00:35;;;;;;;;;;;7.80;99.90;;;;;;5083609;28;38456;-57
2022/05/08 03:03:03;;;;;;;;;;;7.70;99.90;;;;;;5086796;27;37204;-57
2022/05/08 03:05:31;;;;;;;;;;;7.80;99.90;;;;;;5082665;27;38872;-57
2022/05/08 03:07:58;;;;;;;;;;;7.70;99.90;;;;;;5082444;27;38632;-57
2022/05/08 03:10:26;;;;;;;;;;;7.60;99.90;;;;;;5082223;27;37199;-57
2022/05/08 03:12:53;;;;;;;;;;;7.60;99.90;;;;;;5082635;28;37057;-57
2022/05/08 03:15:20;;;;;;;;;;;7.50;99.90;;;;;;5081864;28;37534;-57
2022/05/08 03:17:47;;;;;;;;;;;7.50;99.90;;;;;;5082444;27;41042;-57
2022/05/08 03:20:14;;;;;;;;;;;7.50;99.90;;;;;;5084265;28;37145;-57
2022/05/08 03:22:42;;;;;;;;;;;7.50;99.90;;;;;;5084207;27;38634;-57
2022/05/08 03:25:10;;;;;;;;;;;7.50;99.90;;;;;;5083873;28;39412;-57
2022/05/08 03:27:37;;;;;;;;;;;7.60;99.90;;;;;;5084111;27;37750;-57
2022/05/08 03:30:04;;;;;;;;;;;7.60;99.90;;;;;;5083737;28;37318;-57
2022/05/08 03:32:32;;;;;;;;;;;7.60;99.90;;;;;;5083185;27;36605;-57
2022/05/08 03:34:59;;;;;;;;;;;7.60;99.90;;;;;;5082608;28;37712;-57
2022/05/08 03:37:26;;;;;;;;;;;7.60;99.90;;;;;;5084176;27;38220;-57
2022/05/08 03:39:54;;;;;;;;;;;7.60;99.90;;;;;;5083263;27;37240;-57
2022/05/08 03:42:21;;;;;;;;;;;7.60;99.90;;;;;;5087311;27;37728;-57
2022/05/08 03:44:48;;;;;;;;;;;7.60;99.90;;;;;;5085934;28;38201;-57
2022/05/08 03:47:16;;;;;;;;;;;7.60;99.90;;;;;;5089815;27;38831;-57
2022/05/08 03:49:43;;;;;;;;;;;7.60;99.90;;;;;;5087471;27;35801;-57
2022/05/08 03:52:10;;;;;;;;;;;7.60;99.90;;;;;;5087486;27;38527;-57
2022/05/08 03:54:37;;;;;;;;;;;7.70;99.90;;;;;;5087395;28;36208;-57
2022/05/08 03:57:05;;;;;;;;;;;7.60;99.90;;;;;;5085438;27;37877;-57
2022/05/08 03:59:32;;;;;;;;;;;7.60;99.90;;;;;;5088667;27;38050;-57
2022/05/08 04:01:59;;;;;;;;;;;7.60;99.90;;;;;;5087163;27;35170;-57
2022/05/08 04:04:26;;;;;;;;;;;7.50;99.90;;;;;;5087670;27;37603;-57
2022/05/08 04:06:56;;;;;;;;;;;7.50;99.90;;;;;;5087507;28;36706;-58
2022/05/08 04:09:24;;;;;;;;;;;7.50;99.90;;;;;;5086974;28;37254;-57
2022/05/08 04:11:51;;;;;;;;;;;7.50;99.90;;;;;;5088771;28;36025;-57
2022/05/08 04:14:19;;;;;;;;;;;7.50;99.90;;;;;;5086232;28;40761;-58
2022/05/08 04:16:47;;;;;;;;;;;7.50;99.90;;;;;;5088267;27;38925;-57
2022/05/08 04:19:14;;;;;;;;;;;7.50;99.90;;;;;;5087169;27;37882;-58
2022/05/08 04:21:41;;;;;;;;;;;7.50;99.90;;;;;;5086540;28;35037;-57
2022/05/08 04:24:17;;;;;;;;;;;7.60;99.90;;;;;;5087883;27;37638;-57
2022/05/08 04:26:44;;;;;;;;;;;7.60;99.90;;;;;;5087190;28;37703;-56
2022/05/08 04:29:11;;;;;;;;;;;7.70;99.90;;;;;;5087808;27;37808;-57
2022/05/08 04:31:40;;;;;;;;;;;7.80;99.90;;;;;;5086417;28;36210;-57
2022/05/08 04:34:09;;;;;;;;;;;7.90;99.90;;;;;;5090222;27;37336;-57
2022/05/08 04:36:36;;;;;;;;;;;8.00;99.90;;;;;;5088059;27;38645;-58
2022/05/08 04:39:04;;;;;;;;;;;8.00;99.90;;;;;;5087947;27;37647;-58
2022/05/08 04:41:31;;;;;;;;;;;8.10;99.90;;;;;;5087690;27;36360;-57
2022/05/08 04:44:00;;;;;;;;;;;8.10;99.90;;;;;;5086657;28;39786;-57
2022/05/08 04:46:27;;;;;;;;;;;8.20;99.90;;;;;;5089719;27;38521;-58
2022/05/08 04:48:56;;;;;;;;;;;8.20;99.90;;;;;;5087335;27;36072;-57
2022/05/08 04:51:23;;;;;;;;;;;8.30;99.90;;;;;;5088309;27;36136;-57
2022/05/08 04:53:50;;;;;;;;;;;8.50;99.90;;;;;;5088211;27;35939;-58
2022/05/08 04:56:17;;;;;;;;;;;8.60;99.90;;;;;;5089348;27;36693;-57
2022/05/08 04:58:44;;;;;;;;;;;8.90;99.90;;;;;;5089032;27;37289;-57
2022/05/08 05:01:11;;;;;;;;;;;9.00;99.90;;;;;;5081385;27;35031;-55
2022/05/08 05:03:39;;;;;;;;;;;9.10;99.90;;;;;;5078554;27;38401;-55
2022/05/08 05:06:07;;;;;;;;;;;9.20;99.90;;;;;;5078944;28;37710;-55
2022/05/08 05:08:37;;;;;;;;;;;9.50;99.90;;;;;;5078762;27;38273;-55
2022/05/08 05:11:08;;;;;;;;;;;9.70;99.90;;;;;;5079879;28;36640;-55
2022/05/08 05:13:35;;;;;;;;;;;9.90;98.90;;;;;;5078761;28;37977;-55
2022/05/08 05:16:03;;;;;;;;;;;9.80;98.60;;;;;;5079258;28;37862;-55
2022/05/08 05:18:30;;;;;;;;;;;9.90;98.80;;;;;;5079952;28;36975;-55
2022/05/08 05:20:57;;;;;;;;;;;10.00;98.90;;;;;;5078376;27;38745;-55
2022/05/08 05:23:26;;;;;;;;;;;10.10;98.70;;;;;;5080709;28;36541;-55
2022/05/08 05:25:53;;;;;;;;;;;10.30;98.60;;;;;;5079816;27;36844;-56
2022/05/08 05:28:20;;;;;;;;;;;10.40;98.50;;;;;;5079222;27;38004;-56
2022/05/08 05:30:49;;;;;;;;;;;10.50;97.60;;;;;;5079696;28;35168;-55
2022/05/08 05:33:19;;;;;;;;;;;10.50;97.50;;;;;;5079663;27;37625;-56
2022/05/08 05:35:46;;;;;;;;;;;10.40;97.50;;;;;;5080670;27;37369;-56
2022/05/08 05:38:13;;;;;;;;;;;10.40;97.20;;;;;;5080556;27;37436;-55
2022/05/08 05:40:42;;;;;;;;;;;10.20;97.60;;;;;;5080182;28;36759;-56
2022/05/08 05:43:11;;;;;;;;;;;10.20;97.80;;;;;;5079263;27;36575;-55
2022/05/08 05:45:39;;;;;;;;;;;10.10;97.60;;;;;;5078969;28;37764;-55
2022/05/08 05:48:06;;;;;;;;;;;10.10;97.30;;;;;;5079579;27;36070;-55
2022/05/08 05:50:33;;;;;;;;;;;10.20;97.40;;;;;;5079590;28;36615;-55
2022/05/08 05:53:00;;;;;;;;;;;10.20;97.60;;;;;;5079906;28;37436;-55
2022/05/08 05:55:27;;;;;;;;;;;10.30;97.60;;;;;;5078079;27;38108;-56
2022/05/08 05:57:56;;;;;;;;;;;10.30;98.10;;;;;;5079617;27;38663;-56
2022/05/08 06:00:23;;;;;;;;;;;10.40;98.10;;;;;;5078750;27;35191;-55
2022/05/08 06:02:50;;;;;;;;;;;10.50;97.60;;;;;;5077951;27;37661;-55
2022/05/08 06:05:17;;;;;;;;;;;10.50;97.00;;;;;;5079386;27;37965;-56
2022/05/08 06:07:44;;;;;;;;;;;10.50;97.30;;;;;;5079011;28;39123;-55
2022/05/08 06:10:12;;;;;;;;;;;10.60;97.40;;;;;;5078362;27;37663;-55
2022/05/08 06:12:39;;;;;;;;;;;10.70;97.50;;;;;;5078879;27;36478;-56
2022/05/08 06:15:09;;;;;;;;;;;10.80;98.20;;;;;;5079206;27;38775;-55
2022/05/08 06:17:36;;;;;;;;;;;11.00;97.30;;;;;;5078741;28;36095;-55
2022/05/08 06:20:04;;;;;;;;;;;11.00;97.20;;;;;;5077510;28;37400;-55
2022/05/08 06:22:31;;;;;;;;;;;11.00;96.70;;;;;;5077739;28;36678;-55
2022/05/08 06:24:58;;;;;;;;;;;11.10;96.50;;;;;;5078946;27;38377;-55
2022/05/08 06:27:26;;;;;;;;;;;11.10;96.10;;;;;;5085693;27;37144;-58
2022/05/08 06:29:53;;;;;;;;;;;11.10;95.70;;;;;;5087161;28;35104;-58
2022/05/08 06:32:22;;;;;;;;;;;11.10;95.80;;;;;;5087651;27;37624;-58
2022/05/08 06:34:49;;;;;;;;;;;11.10;95.70;;;;;;5087386;28;37321;-58
2022/05/08 06:37:16;;;;;;;;;;;11.20;95.90;;;;;;5088607;28;37802;-58
2022/05/08 06:39:43;;;;;;;;;;;11.20;96.20;;;;;;5087311;28;36691;-58
2022/05/08 06:42:10;;;;;;;;;;;11.40;96.00;;;;;;5086093;27;38166;-59
2022/05/08 06:44:38;;;;;;;;;;;11.50;95.60;;;;;;5085529;28;36598;-58
2022/05/08 06:47:05;;;;;;;;;;;11.50;95.20;;;;;;5086124;28;39683;-59
2022/05/08 06:49:36;;;;;;;;;;;11.50;95.20;;;;;;5087815;27;37157;-58
2022/05/08 06:52:04;;;;;;;;;;;11.50;95.20;;;;;;5086746;27;36450;-58
2022/05/08 06:54:31;;;;;;;;;;;11.40;94.80;;;;;;5088424;28;40855;-58
2022/05/08 06:56:59;;;;;;;;;;;11.40;94.50;;;;;;5085386;27;38289;-58
2022/05/08 07:02:11;;;;;;;;;;;11.30;94.30;;;;;;5085213;28;38783;-56
2022/05/08 07:04:40;;;;;;;;;;;11.20;94.60;;;;;;5079399;27;38172;-56
2022/05/08 07:07:07;;;;;;;;;;;11.20;94.40;;;;;;5077813;27;38303;-55
2022/05/08 07:09:35;;;;;;;;;;;11.20;94.10;;;;;;5078509;27;38053;-56
2022/05/08 07:12:02;;;;;;;;;;;11.20;93.90;;;;;;5078036;27;38949;-55
2022/05/08 07:14:29;;;;;;;;;;;11.20;94.00;;;;;;5078122;27;38859;-55
2022/05/08 07:16:56;;;;;;;;;;;11.20;94.30;;;;;;5083911;28;38398;-55
2022/05/08 07:19:23;;;;;;;;;;;11.40;93.80;;;;;;5085823;27;37711;-55
2022/05/08 07:21:52;;;;;;;;;;;11.50;93.20;;;;;;5083401;28;38331;-55
2022/05/08 07:24:19;;;;;;;;;;;11.50;93.40;;;;;;5083674;27;37459;-55
2022/05/08 07:26:47;;;;;;;;;;;11.50;93.60;;;;;;5082118;27;37257;-55
2022/05/08 07:29:17;;;;;;;;;;;11.50;93.40;;;;;;5083760;27;36478;-55
2022/05/08 07:31:44;;;;;;;;;;;11.50;93.70;;;;;;5084568;27;37828;-55
2022/05/08 07:36:57;;;;;;;;;;;11.70;93.70;;;;;;5084463;28;39414;-56
2022/05/08 07:39:24;;;;;;;;;;;11.70;93.10;;;;;;5084530;27;36058;-56
2022/05/08 07:41:53;;;;;;;;;;;11.60;92.90;;;;;;5085325;28;38230;-56
2022/05/08 07:44:20;;;;;;;;;;;11.60;93.10;;;;;;5085712;27;38415;-56
2022/05/08 07:46:47;;;;;;;;;;;11.60;93.00;;;;;;5085123;27;37380;-55
2022/05/08 07:49:14;;;;;;;;;;;11.60;93.10;;;;;;5084826;27;36456;-56
2022/05/08 07:51:41;;;;;;;;;;;11.70;93.00;;;;;;5084770;27;40836;-55
2022/05/08 07:54:11;;;;;;;;;;;11.80;93.40;;;;;;5084568;27;38201;-56
2022/05/08 07:56:39;;;;;;;;;;;12.00;93.10;;;;;;5083313;27;37322;-55
2022/05/08 07:59:06;;;;;;;;;;;12.20;92.60;;;;;;5084621;27;36963;-55
2022/05/08 08:01:34;;;;;;;;;;;12.30;92.40;;;;;;5086022;28;39368;-56
2022/05/08 08:04:04;;;;;;;;;;;12.60;92.90;;;;;;5084928;27;38672;-54
2022/05/08 08:06:32;;;;;;;;;;;13.00;93.00;;;;;;5081831;28;35880;-55
2022/05/08 08:09:00;;;;;;;;;;;13.20;91.70;;;;;;5082293;27;37160;-56
2022/05/08 08:11:28;;;;;;;;;;;13.40;91.20;;;;;;5082314;27;37484;-56
2022/05/08 08:13:55;;;;;;;;;;;13.60;90.60;;;;;;5082814;27;39198;-55
2022/05/08 08:16:22;;;;;;;;;;;13.80;88.40;;;;;;5083472;28;37784;-58
2022/05/08 08:18:50;;;;;;;;;;;14.00;87.80;;;;;;5086012;28;36186;-58
2022/05/08 08:21:17;;;;;;;;;;;14.10;86.20;;;;;;5086479;28;38237;-58
2022/05/08 08:23:44;;;;;;;;;;;14.00;85.50;;;;;;5082281;27;37759;-56
2022/05/08 08:26:12;;;;;;;;;;;13.70;84.20;;;;;;5076189;27;36101;-56
2022/05/08 08:28:41;;;;;;;;;;;13.50;83.90;;;;;;5075753;27;35643;-55
2022/05/08 08:31:08;;;;;;;;;;;13.60;86.00;;;;;;5077542;27;37260;-56
2022/05/08 08:33:37;;;;;;;;;;;13.50;81.30;;;;;;5078612;27;37721;-56
2022/05/08 08:36:05;;;;;;;;;;;13.40;84.20;;;;;;5077703;27;37884;-55
2022/05/08 08:38:32;;;;;;;;;;;13.40;82.30;;;;;;5077597;27;36651;-55
2022/05/08 08:41:03;;;;;;;;;;;13.30;83.30;;;;;;5080778;27;37520;-58
2022/05/08 08:43:30;;;;;;;;;;;13.40;83.40;;;;;;5076824;27;38257;-59
2022/05/08 08:48:46;;;;;;;;;;;13.50;84.10;;;;;;5050174;27;37739;-59
2022/05/08 08:51:13;;;;;;;;;;;13.70;84.00;;;;;;5079953;27;39126;-59
2022/05/08 08:53:40;;;;;;;;;;;14.10;86.40;;;;;;5079688;27;38249;-59
2022/05/08 08:56:07;;;;;;;;;;;14.50;86.50;;;;;;5077842;27;39628;-59
2022/05/08 08:58:35;;;;;;;;;;;14.80;78.90;;;;;;5079234;27;36166;-59
2022/05/08 09:01:03;;;;;;;;;;;14.70;75.10;;;;;;5079635;27;39162;-59
2022/05/08 09:03:31;;;;;;;;;;;14.50;76.30;;;;;;5080844;27;42434;-59
2022/05/08 09:05:58;;;;;;;;;;;14.50;77.30;;;;;;5078524;27;37497;-59
2022/05/08 09:08:25;;;;;;;;;;;14.50;78.10;;;;;;5077059;27;36015;-56
2022/05/08 09:10:54;;;;;;;;;;;14.60;75.10;;;;;;5074934;27;37898;-60
2022/05/08 09:13:23;;;;;;;;;;;14.60;78.90;;;;;;5074899;27;37344;-56
2022/05/08 09:15:50;;;;;;;;;;;14.90;77.90;;;;;;5075391;27;39530;-56
2022/05/08 09:18:18;;;;;;;;;;;15.10;74.90;;;;;;5076655;27;34985;-56
2022/05/08 09:20:48;;;;;;;;;;;15.50;78.90;;;;;;5075937;27;36612;-55
2022/05/08 09:23:16;;;;;;;;;;;15.80;77.60;;;;;;5076042;27;38499;-55
2022/05/08 09:25:44;;;;;;;;;;;15.80;73.00;;;;;;5076206;27;35743;-56
2022/05/08 09:28:11;;;;;;;;;;;15.70;72.60;;;;;;5076159;27;35051;-55
2022/05/08 09:30:53;;;;;;;;;;;15.60;71.90;;;;;;5076796;27;38734;-56
2022/05/08 09:33:38;;;;;;;;;;;15.50;72.00;;;;;;5075947;27;36613;-55
2022/05/08 09:36:08;;;;;;;;;;;15.40;71.30;;;;;;5074582;27;37323;-55
2022/05/08 09:38:45;;;;;;;;;;;15.50;70.60;;;;;;5072821;27;35820;-55
2022/05/08 09:41:13;;;;;;;;;;;15.80;72.80;;;;;;5073621;27;36961;-55
2022/05/08 09:43:41;;;;;;;;;;;16.00;70.40;;;;;;5077951;27;37669;-59
2022/05/08 09:46:09;;;;;;;;;;;16.30;72.80;;;;;;5077007;27;38110;-58
2022/05/08 09:48:36;;;;;;;;;;;16.60;74.40;;;;;;5076456;27;35330;-59
2022/05/08 09:51:04;;;;;;;;;;;16.80;66.40;;;;;;5077207;27;37437;-58
2022/05/08 09:53:36;;;;;;;;;;;16.80;63.60;;;;;;5076078;27;40030;-58
2022/05/08 09:56:07;;;;;;;;;;;16.80;67.90;;;;;;5076677;27;35531;-58
2022/05/08 09:58:38;;;;;;;;;;;16.90;63.50;;;;;;5077926;27;36241;-58
2022/05/08 10:01:08;;;;;;;;;;;17.00;63.20;;;;;;5077461;27;38066;-58
2022/05/08 10:03:36;;;;;;;;;;;17.00;62.40;;;;;;5075969;27;38176;-58
2022/05/08 10:06:03;;;;;;;;;;;17.10;62.30;;;;;;5074995;27;38148;-58
2022/05/08 10:08:31;;;;;;;;;;;17.20;65.70;;;;;;5073722;27;38526;-57
2022/05/08 10:14:01;;;;;;;;;;;17.20;61.50;;;;;;5076767;27;39902;-57
2022/05/08 10:16:44;;;;;;;;;;;17.20;59.40;;;;;;5075744;27;35971;-58
2022/05/08 10:19:29;;;;;;;;;;;17.30;64.50;;;;;;5075645;27;36705;-58
2022/05/08 10:22:10;;;;;;;;;;;17.40;61.50;;;;;;5075064;27;37937;-58
2022/05/08 10:24:38;;;;;;;;;;;17.50;59.80;;;;;;5074362;27;38773;-58
2022/05/08 10:27:10;;;;;;;;;;;17.50;57.20;;;;;;5077538;27;36001;-58
2022/05/08 10:29:41;;;;;;;;;;;17.20;54.60;;;;;;5076240;27;36927;-54
2022/05/08 10:32:10;;;;;;;;;;;17.00;59.00;;;;;;5076261;27;38357;-54
2022/05/08 10:34:38;;;;;;;;;;;17.00;60.70;;;;;;5073620;27;38733;-55
2022/05/08 10:37:33;;;;;;;;;;;17.00;59.00;;;;;;5075042;27;37413;-54
2022/05/08 10:40:01;;;;;;;;;;;16.90;59.50;;;;;;5028489;27;38129;-54
2022/05/08 10:42:45;;;;;;;;;;;16.90;62.60;;;;;;5074672;27;37805;-58
2022/05/08 10:45:30;;;;;;;;;;;16.90;59.40;;;;;;5075599;27;38456;-58
2022/05/08 10:47:57;;;;;;;;;;;17.00;63.30;;;;;;5066349;27;37679;-58
2022/05/08 10:50:24;;;;;;;;;;;17.00;56.90;;;;;;5077271;27;35936;-58
2022/05/08 10:52:53;;;;;;;;;;;17.00;60.30;;;;;;5075628;27;38109;-58
2022/05/08 10:55:20;;;;;;;;;;;17.10;59.00;;;;;;5076705;27;41487;-58
2022/05/08 10:57:50;;;;;;;;;;;16.90;56.80;;;;;;5076659;27;37952;-58
2022/05/08 11:00:19;;;;;;;;;;;16.90;58.10;;;;;;5076018;27;36927;-58
2022/05/08 11:02:50;;;;;;;;;;;16.90;60.00;;;;;;5073917;27;38539;-58
2022/05/08 11:05:18;;;;;;;;;;;17.10;60.30;;;;;;5073195;27;38097;-58
2022/05/08 11:07:48;;;;;;;;;;;17.30;59.50;;;;;;5073696;27;37325;-58
2022/05/08 11:10:16;;;;;;;;;;;17.50;58.20;;;;;;5075712;27;36646;-58
2022/05/08 11:13:00;;;;;;;;;;;17.70;59.50;;;;;;5075032;27;38802;-58
2022/05/08 11:15:27;;;;;;;;;;;17.80;57.80;;;;;;5072921;27;38033;-58
2022/05/08 11:18:07;;;;;;;;;;;17.80;55.40;;;;;;5074118;27;37493;-57
2022/05/08 11:20:36;;;;;;;;;;;17.80;56.70;;;;;;5075340;27;35026;-54
2022/05/08 11:23:06;;;;;;;;;;;17.80;55.20;;;;;;5073412;27;37542;-55
2022/05/08 11:25:34;;;;;;;;;;;17.70;54.20;;;;;;5071515;27;38087;-54
2022/05/08 11:28:02;;;;;;;;;;;17.60;55.10;;;;;;5075312;27;37426;-54
2022/05/08 11:30:30;;;;;;;;;;;17.50;55.30;;;;;;5073689;27;36489;-55
2022/05/08 11:36:07;;;;;;;;;;;17.50;57.10;;;;;;5071220;27;39377;-55
2022/05/08 11:38:46;;;;;;;;;;;17.60;55.80;;;;;;5069893;27;38425;-54
2022/05/08 11:41:14;;;;;;;;;;;17.70;55.90;;;;;;5074871;27;36353;-54
2022/05/08 11:43:43;;;;;;;;;;;17.60;52.90;;;;;;5072726;27;38452;-55
2022/05/08 11:46:15;;;;;;;;;;;17.40;53.20;;;;;;5072627;27;36657;-55
2022/05/08 11:48:42;;;;;;;;;;;17.30;58.30;;;;;;5074548;27;37530;-55
2022/05/08 11:51:10;;;;;;;;;;;17.40;59.20;;;;;;5075836;27;34766;-55
2022/05/08 11:53:43;;;;;;;;;;;17.40;55.80;;;;;;5073165;27;37715;-55
2022/05/08 11:56:20;;;;;;;;;;;17.40;58.60;;;;;;5074438;27;37384;-53
2022/05/08 11:58:49;;;;;;;;;;;17.40;56.80;;;;;;5072746;27;37663;-54
2022/05/08 12:01:23;;;;;;;;;;;17.10;56.90;;;;;;5072415;27;35671;-55
2022/05/08 12:03:50;;;;;;;;;;;17.10;57.40;;;;;;5076681;27;37425;-58
2022/05/08 12:06:17;;;;;;;;;;;17.00;57.80;;;;;;5075630;27;36800;-58
2022/05/08 12:08:45;;;;;;;;;;;17.00;57.60;;;;;;5077830;27;37321;-58
2022/05/08 12:11:33;;;;;;;;;;;16.90;57.30;;;;;;5077045;27;36493;-57
2022/05/08 12:14:03;;;;;;;;;;;16.90;61.10;;;;;;5079676;27;38276;-55
2022/05/08 12:16:31;;;;;;;;;;;16.90;60.20;;;;;;5075189;27;38430;-55
2022/05/08 12:19:11;;;;;;;;;;;16.90;61.70;;;;;;5077050;27;37009;-55
2022/05/08 12:21:38;;;;;;;;;;;16.90;60.50;;;;;;5077356;27;37016;-55
2022/05/08 12:24:09;;;;;;;;;;;16.80;60.30;;;;;;5076584;27;37786;-55
2022/05/08 12:26:36;;;;;;;;;;;16.70;59.60;;;;;;5078744;27;38547;-55
2022/05/08 12:29:08;;;;;;;;;;;16.50;60.70;;;;;;5077618;27;36096;-55
2022/05/08 12:31:36;;;;;;;;;;;16.50;61.60;;;;;;5077252;27;35118;-55
2022/05/08 12:34:05;;;;;;;;;;;16.50;62.30;;;;;;5078829;27;38163;-55
2022/05/08 12:36:34;;;;;;;;;;;16.50;63.10;;;;;;5076014;27;37829;-56
2022/05/08 12:39:02;;;;;;;;;;;16.50;60.90;;;;;;5077549;27;36499;-56
2022/05/08 12:41:33;;;;;;;;;;;16.40;61.90;;;;;;5078413;27;36463;-58
2022/05/08 12:44:00;;;;;;;;;;;16.40;62.70;;;;;;5080264;27;38995;-58
2022/05/08 12:46:29;;;;;;;;;;;16.40;60.00;;;;;;5078932;27;39849;-58
2022/05/08 12:49:02;;;;;;;;;;;16.40;59.20;;;;;;5079341;27;36991;-58
2022/05/08 12:51:30;;;;;;;;;;;16.30;58.10;;;;;;5078152;27;36266;-58
2022/05/08 12:53:57;;;;;;;;;;;16.20;60.60;;;;;;5079888;27;36564;-58
2022/05/08 12:56:25;;;;;;;;;;;16.20;60.80;;;;;;5078097;27;38535;-58
2022/05/08 13:01:38;;;;;;;;;;;16.00;59.50;;;;;;5080004;27;37550;-58
2022/05/08 13:04:08;;;;;;;;;;;16.00;60.10;;;;;;5078911;27;37852;-58
2022/05/08 13:06:35;;;;;;;;;;;16.00;60.90;;;;;;5078801;27;37700;-59
2022/05/08 13:09:06;;;;;;;;;;;15.90;60.50;;;;;;5079954;27;38286;-58
2022/05/08 13:11:33;;;;;;;;;;;15.80;61.10;;;;;;5078467;27;36929;-58
2022/05/08 13:14:01;;;;;;;;;;;15.80;62.50;;;;;;5078612;27;36559;-58
2022/05/08 13:16:31;;;;;;;;;;;15.80;62.30;;;;;;5077621;27;40254;-58
2022/05/08 13:18:59;;;;;;;;;;;15.70;64.10;;;;;;5078132;27;37118;-59
2022/05/08 13:21:30;;;;;;;;;;;15.80;67.10;;;;;;5078042;27;37045;-59
2022/05/08 13:23:57;;;;;;;;;;;15.80;64.80;;;;;;5077359;27;37261;-58
2022/05/08 13:26:24;;;;;;;;;;;15.80;66.80;;;;;;5079210;27;38161;-59
2022/05/08 13:28:51;;;;;;;;;;;15.80;64.40;;;;;;5078375;27;36951;-59
2022/05/08 13:31:18;;;;;;;;;;;15.80;64.20;;;;;;5078427;27;37406;-59
2022/05/08 13:33:45;;;;;;;;;;;15.60;62.80;;;;;;5078749;27;38010;-58
2022/05/08 13:36:14;;;;;;;;;;;15.50;63.50;;;;;;5076957;27;37734;-59
2022/05/08 13:38:42;;;;;;;;;;;15.40;62.30;;;;;;5077822;27;37118;-59
2022/05/08 13:41:12;;;;;;;;;;;15.40;62.20;;;;;;5078022;27;36483;-59
2022/05/08 13:43:39;;;;;;;;;;;15.30;62.30;;;;;;5076508;27;37989;-59
2022/05/08 13:46:09;;;;;;;;;;;15.30;64.00;;;;;;5076069;27;38827;-59
2022/05/08 13:48:39;;;;;;;;;;;15.20;64.80;;;;;;5075726;27;36056;-59
2022/05/08 13:51:06;;;;;;;;;;;15.30;66.00;;;;;;5073120;27;37591;-59
2022/05/08 13:53:34;;;;;;;;;;;15.30;66.30;;;;;;5074580;27;36462;-58
2022/05/08 13:56:02;;;;;;;;;;;15.30;64.90;;;;;;5076940;27;37748;-58
2022/05/08 13:58:30;;;;;;;;;;;15.20;62.10;;;;;;5076426;27;36834;-59
2022/05/08 14:00:57;;;;;;;;;;;15.10;63.10;;;;;;5075444;27;37128;-59
2022/05/08 14:03:24;;;;;;;;;;;15.00;64.90;;;;;;5077169;27;41429;-59
2022/05/08 14:05:52;;;;;;;;;;;15.00;64.80;;;;;;5075544;27;37405;-59
2022/05/08 14:08:20;;;;;;;;;;;15.00;64.10;;;;;;5073247;27;38371;-59
2022/05/08 14:10:48;;;;;;;;;;;15.00;64.30;;;;;;5073566;27;35156;-59
2022/05/08 14:13:15;;;;;;;;;;;15.00;64.90;;;;;;5075505;27;36553;-59
2022/05/08 14:15:43;;;;;;;;;;;15.00;64.10;;;;;;5074828;27;38107;-59
2022/05/08 14:18:10;;;;;;;;;;;15.00;63.00;;;;;;5076370;27;38018;-59
2022/05/08 14:20:38;;;;;;;;;;;14.90;61.30;;;;;;5076490;27;36403;-59
2022/05/08 14:23:06;;;;;;;;;;;14.90;62.50;;;;;;5071720;27;38252;-58
2022/05/08 14:25:33;;;;;;;;;;;14.90;63.60;;;;;;5074590;27;38925;-59
2022/05/08 14:28:01;;;;;;;;;;;14.90;65.10;;;;;;5077154;27;35987;-59
2022/05/08 14:30:29;;;;;;;;;;;14.80;64.30;;;;;;5072657;27;35183;-58
2022/05/08 14:36:05;;;;;;;;;;;14.60;63.80;;;;;;5013991;28;37653;-59
2022/05/08 14:38:33;;;;;;;;;;;14.70;65.90;;;;;;5013375;28;37461;-58
2022/05/08 14:41:01;;;;;;;;;;;14.70;64.00;;;;;;5040969;27;36089;-58
2022/05/08 14:43:29;;;;;;;;;;;14.60;65.90;;;;;;5071327;27;37921;-54
2022/05/08 14:45:58;;;;;;;;;;;14.60;64.50;;;;;;5071044;27;39020;-55
2022/05/08 14:48:26;;;;;;;;;;;14.60;64.80;;;;;;5072120;27;37310;-54
2022/05/08 14:50:53;;;;;;;;;;;14.60;66.70;;;;;;5070940;27;35230;-56
2022/05/08 14:53:20;;;;;;;;;;;14.50;65.50;;;;;;5069814;27;39609;-56